createdAt,value
2022-11-05T00:00:10.102Z,8
2022-11-05T00:05:10.099Z,8.1
2022-11-05T00:10:10.101Z,8.1
2022-11-05T00:15:10.088Z,8.1
2022-11-05T00:20:10.106Z,8.1
2022-11-05T00:25:10.085Z,8.1
2022-11-05T00:30:10.101Z,8.1
2022-11-05T00:35:10.093Z,8.1
2022-11-05T00:40:10.096Z,8
2022-11-05T00:45:10.088Z,8
2022-11-05T00:50:10.106Z,7.9
2022-11-05T00:55:10.097Z,7.9
2022-11-05T01:00:10.107Z,7.9
2022-11-05T01:05:10.097Z,7.9
2022-11-05T01:10:10.103Z,7.9
2022-11-05T01:15:10.100Z,7.8
2022-11-05T01:20:10.111Z,7.8
2022-11-05T01:25:10.091Z,7.8
2022-11-05T01:30:10.103Z,7.8
2022-11-05T01:35:10.099Z,7.7
2022-11-05T01:40:10.104Z,7.7
2022-11-05T01:45:10.094Z,7.6
2022-11-05T01:50:10.100Z,7.5
2022-11-05T01:55:10.093Z,7.5
2022-11-05T02:00:10.107Z,7.4
2022-11-05T02:05:10.093Z,7.3
2022-11-05T02:10:10.112Z,7.3
2022-11-05T02:15:10.095Z,7.3
2022-11-05T02:20:10.102Z,7.4
2022-11-05T02:25:10.102Z,7.4
2022-11-05T02:30:10.106Z,7.4
2022-11-05T02:35:10.108Z,7.4
2022-11-05T02:40:10.101Z,7.4
2022-11-05T02:45:10.097Z,7.4
2022-11-05T02:50:10.130Z,7.4
2022-11-05T02:55:10.105Z,7.4
2022-11-05T03:00:10.097Z,7.5
2022-11-05T03:05:10.105Z,7.5
2022-11-05T03:10:10.103Z,7.5
2022-11-05T03:15:10.106Z,7.5
2022-11-05T03:20:10.110Z,7.5
2022-11-05T03:25:10.091Z,7.5
2022-11-05T03:30:10.107Z,7.5
2022-11-05T03:35:10.093Z,7.6
2022-11-05T03:40:10.104Z,7.6
2022-11-05T03:45:10.096Z,7.6
2022-11-05T03:50:10.111Z,7.6
2022-11-05T03:55:10.155Z,7.6
2022-11-05T04:00:10.120Z,7.6
2022-11-05T04:05:10.105Z,7.6
2022-11-05T04:10:10.101Z,7.6
2022-11-05T04:15:10.097Z,7.6
2022-11-05T04:20:10.112Z,7.6
2022-11-05T04:25:10.090Z,7.6
2022-11-05T04:30:10.091Z,7.6
2022-11-05T04:35:10.088Z,7.6
2022-11-05T04:40:10.102Z,7.6
2022-11-05T04:45:10.093Z,7.6
2022-11-05T04:50:10.116Z,7.6
2022-11-05T04:55:10.120Z,7.6
2022-11-05T05:00:10.122Z,7.6
2022-11-05T05:05:10.108Z,7.6
2022-11-05T05:10:10.126Z,7.6
2022-11-05T05:15:10.108Z,7.7
2022-11-05T05:20:10.112Z,7.7
2022-11-05T05:25:10.109Z,7.7
2022-11-05T05:30:10.110Z,7.6
2022-11-05T05:35:10.104Z,7.6
2022-11-05T05:40:10.095Z,7.6
2022-11-05T05:45:10.101Z,7.6
2022-11-05T05:50:10.096Z,7.6
2022-11-05T05:55:10.102Z,7.6
2022-11-05T06:00:10.098Z,7.6
2022-11-05T06:05:10.089Z,7.6
2022-11-05T06:10:10.106Z,7.6
2022-11-05T06:15:10.093Z,7.6
2022-11-05T06:20:10.104Z,7.6
2022-11-05T06:25:10.091Z,7.6
2022-11-05T06:30:10.107Z,7.6
2022-11-05T06:35:10.095Z,7.6
2022-11-05T06:40:10.106Z,7.6
2022-11-05T06:45:10.087Z,7.6
2022-11-05T06:50:10.096Z,7.6
2022-11-05T06:55:10.318Z,7.6
2022-11-05T07:00:10.095Z,7.6
2022-11-05T07:05:10.099Z,7.6
2022-11-05T07:10:10.112Z,7.7
2022-11-05T07:15:10.102Z,7.7
2022-11-05T07:20:10.112Z,7.7
2022-11-05T07:25:10.086Z,7.8
2022-11-05T07:30:10.118Z,7.8
2022-11-05T07:35:10.084Z,7.8
2022-11-05T07:40:10.089Z,7.9
2022-11-05T07:45:10.104Z,7.9
2022-11-05T07:50:10.100Z,7.9
2022-11-05T07:55:10.097Z,8
2022-11-05T08:00:10.100Z,8
2022-11-05T08:05:10.098Z,8.1
2022-11-05T08:10:10.093Z,8.1
2022-11-05T08:15:10.090Z,8.1
2022-11-05T08:20:10.093Z,8.1
2022-11-05T08:25:10.108Z,8.2
2022-11-05T08:30:10.103Z,8.2
2022-11-05T08:35:10.108Z,8.3
2022-11-05T08:40:10.099Z,8.4
2022-11-05T08:45:10.091Z,8.3
2022-11-05T08:50:10.098Z,8.3
2022-11-05T08:55:10.091Z,8.4
2022-11-05T09:00:10.104Z,8.4
2022-11-05T09:05:10.092Z,8.6
2022-11-05T09:10:10.106Z,8.8
2022-11-05T09:15:10.093Z,8.8
2022-11-05T09:20:10.108Z,8.8
2022-11-05T09:25:10.102Z,9
2022-11-05T09:30:10.090Z,9.1
2022-11-05T09:35:10.095Z,9.2
2022-11-05T09:40:10.092Z,9.3
2022-11-05T09:45:10.096Z,9.2
2022-11-05T09:50:10.097Z,9.4
2022-11-05T09:55:10.087Z,9.7
2022-11-05T10:00:10.102Z,9.7
2022-11-05T10:05:10.625Z,9.7
2022-11-05T10:10:10.111Z,10
2022-11-05T10:15:10.089Z,10.4
2022-11-05T10:20:10.105Z,11
2022-11-05T10:25:10.105Z,11.4
2022-11-05T10:30:10.119Z,11.5
2022-11-05T10:35:10.099Z,12
2022-11-05T10:40:10.182Z,11.4
2022-11-05T10:45:10.095Z,11.2
2022-11-05T10:50:10.178Z,10.9
2022-11-05T10:55:10.092Z,10.6
2022-11-05T11:00:10.122Z,10.5
2022-11-05T11:05:10.106Z,10.5
2022-11-05T11:10:10.091Z,11.1
2022-11-05T11:15:10.090Z,11.4
2022-11-05T11:20:10.095Z,11.8
2022-11-05T11:25:10.093Z,11.5
2022-11-05T11:30:10.102Z,11.1
2022-11-05T11:35:10.084Z,11.1
2022-11-05T11:40:10.307Z,11.1
2022-11-05T11:45:10.089Z,11.3
2022-11-05T11:50:10.094Z,11.3
2022-11-05T11:55:10.091Z,10.9
2022-11-05T12:00:10.234Z,10.9
2022-11-05T12:05:10.091Z,10.7
2022-11-05T12:10:10.098Z,10.7
2022-11-05T12:15:10.093Z,10.8
2022-11-05T12:20:10.105Z,10.7
2022-11-05T12:25:10.108Z,10.5
2022-11-05T12:30:10.095Z,10.4
2022-11-05T12:35:10.100Z,10.4
2022-11-05T12:40:10.116Z,10.3
2022-11-05T12:45:10.114Z,10.3
2022-11-05T12:50:10.095Z,10.3
2022-11-05T12:55:10.085Z,10.3
2022-11-05T13:00:10.103Z,10.7
2022-11-05T13:05:10.094Z,10.4
2022-11-05T13:10:10.209Z,10.3
2022-11-05T13:15:10.108Z,10.3
2022-11-05T13:20:14.506Z,10.6
2022-11-05T13:25:10.098Z,10.7
2022-11-05T13:30:10.094Z,10.9
2022-11-05T13:35:10.096Z,10.9
2022-11-05T13:40:10.107Z,10.6
2022-11-05T13:45:10.089Z,10.5
2022-11-05T13:50:10.094Z,10.4
2022-11-05T13:55:10.109Z,10.4
2022-11-05T14:00:10.101Z,10.4
2022-11-05T14:05:10.100Z,10.3
2022-11-05T14:10:10.123Z,10.3
2022-11-05T14:15:10.102Z,10.2
2022-11-05T14:20:10.109Z,10
2022-11-05T14:25:10.093Z,10
2022-11-05T14:30:10.101Z,10
2022-11-05T14:35:10.096Z,9.9
2022-11-05T14:40:10.094Z,9.8
2022-11-05T14:45:10.109Z,9.8
2022-11-05T14:50:10.103Z,9.7
2022-11-05T14:55:10.103Z,9.7
2022-11-05T15:00:10.111Z,9.9
2022-11-05T15:05:10.108Z,9.9
2022-11-05T15:10:10.885Z,9.8
2022-11-05T15:15:10.099Z,9.6
2022-11-05T15:20:10.090Z,9.3
2022-11-05T15:25:10.099Z,9.1
2022-11-05T15:30:10.102Z,9.1
2022-11-05T15:35:10.094Z,9
2022-11-05T15:40:10.097Z,8.8
2022-11-05T15:45:10.102Z,8.8
2022-11-05T15:50:14.418Z,8.5
2022-11-05T15:55:10.107Z,8.5
2022-11-05T16:00:10.095Z,8.4
2022-11-05T16:05:10.086Z,8.4
2022-11-05T16:10:12.697Z,8.3
2022-11-05T16:15:10.087Z,8.1
2022-11-05T16:20:10.100Z,7.9
2022-11-05T16:25:10.087Z,7.9
2022-11-05T16:30:10.102Z,8.1
2022-11-05T16:35:10.095Z,8.1
2022-11-05T16:40:10.104Z,7.9
2022-11-05T16:45:10.096Z,7.9
2022-11-05T16:50:10.098Z,7.9
2022-11-05T16:55:10.095Z,7.8
2022-11-05T17:00:10.110Z,7.7
2022-11-05T17:05:10.101Z,7.6
2022-11-05T17:10:10.096Z,7.5
2022-11-05T17:15:10.107Z,7.3
2022-11-05T17:20:10.109Z,7.3
2022-11-05T17:25:10.096Z,7.3
2022-11-05T17:30:10.106Z,7.3
2022-11-05T17:35:10.095Z,7.3
2022-11-05T17:40:10.094Z,7.2
2022-11-05T17:45:10.099Z,7.2
2022-11-05T17:50:10.104Z,7.1
2022-11-05T17:55:10.098Z,7.1
2022-11-05T18:00:10.093Z,7.1
2022-11-05T18:05:10.096Z,7.2
2022-11-05T18:10:10.092Z,7.3
2022-11-05T18:15:10.095Z,7.3
2022-11-05T18:20:14.280Z,7.3
2022-11-05T18:25:10.093Z,7.2
2022-11-05T18:30:10.096Z,7.1
2022-11-05T18:35:10.092Z,7.1
2022-11-05T18:40:10.104Z,7.1
2022-11-05T18:45:10.096Z,7.1
2022-11-05T18:50:10.105Z,7.2
2022-11-05T18:55:10.108Z,7.1
2022-11-05T19:00:10.099Z,7
2022-11-05T19:10:10.106Z,6.9
2022-11-05T19:15:10.127Z,6.8
2022-11-05T19:20:10.096Z,6.7
2022-11-05T19:25:10.104Z,6.8
2022-11-05T19:30:10.106Z,6.8
2022-11-05T19:35:10.099Z,6.8
2022-11-05T19:40:10.106Z,6.7
2022-11-05T19:45:38.666Z,6.7
2022-11-05T19:50:10.097Z,6.7
2022-11-05T19:55:12.214Z,6.6
2022-11-05T20:00:10.103Z,6.6
2022-11-05T20:05:10.098Z,6.6
2022-11-05T20:10:10.092Z,6.5
2022-11-05T20:15:10.096Z,6.4
2022-11-05T20:20:10.105Z,6.5
2022-11-05T20:25:10.090Z,6.5
2022-11-05T20:30:10.094Z,6.4
2022-11-05T20:35:10.091Z,6.4
2022-11-05T20:40:10.098Z,6.4
2022-11-05T20:45:10.090Z,6.5
2022-11-05T20:50:10.101Z,6.5
2022-11-05T20:55:10.092Z,6.5
2022-11-05T21:00:10.107Z,6.4
2022-11-05T21:05:10.095Z,6.3
2022-11-05T21:10:10.100Z,6.1
2022-11-05T21:15:10.091Z,6.1
2022-11-05T21:20:10.099Z,5.9
2022-11-05T21:25:10.111Z,5.8
2022-11-05T21:30:10.108Z,5.7
2022-11-05T21:35:10.093Z,5.6
2022-11-05T21:40:10.093Z,5.7
2022-11-05T21:45:10.106Z,5.8
2022-11-05T21:50:10.115Z,5.8
2022-11-05T21:55:10.106Z,5.7
2022-11-05T22:00:10.116Z,5.7
2022-11-05T22:05:10.104Z,5.6
2022-11-05T22:10:14.806Z,5.5
2022-11-05T22:15:10.100Z,5.4
2022-11-05T22:20:10.104Z,5.2
2022-11-05T22:25:10.097Z,5.2
2022-11-05T22:30:10.104Z,5.1
2022-11-05T22:35:10.087Z,5.1
2022-11-05T22:40:10.111Z,5
2022-11-05T22:45:10.105Z,5
2022-11-05T22:50:10.100Z,5.1
2022-11-05T22:55:10.094Z,5.1
2022-11-05T23:00:10.110Z,5.1
2022-11-05T23:05:10.091Z,5
2022-11-05T23:10:10.104Z,5
2022-11-05T23:15:10.102Z,5.1
2022-11-05T23:20:10.100Z,5.1
2022-11-05T23:25:10.096Z,5.1
2022-11-05T23:30:10.097Z,4.9
2022-11-05T23:35:10.096Z,4.9
2022-11-05T23:40:10.094Z,4.9
2022-11-05T23:45:14.142Z,4.9
2022-11-05T23:50:10.097Z,4.8
2022-11-05T23:55:10.095Z,4.8
